sensor_id;sensor_type;location;lat;lon;timestamp;temperature;humidity
16907;DHT22;8570;52.380;4.654;2023-04-06T00:02:28;6.20;99.90
16907;DHT22;8570;52.380;4.654;2023-04-06T00:07:32;6.20;99.90
16907;DHT22;8570;52.380;4.654;2023-04-06T00:12:34;6.20;99.90
16907;DHT22;8570;52.380;4.654;2023-04-06T00:17:36;6.20;99.90
16907;DHT22;8570;52.380;4.654;2023-04-06T00:22:39;6.20;99.90
16907;DHT22;8570;52.380;4.654;2023-04-06T00:27:42;6.20;99.90
16907;DHT22;8570;52.380;4.654;2023-04-06T00:32:44;6.20;99.90
16907;DHT22;8570;52.380;4.654;2023-04-06T00:37:47;6.20;99.90
16907;DHT22;8570;52.380;4.654;2023-04-06T00:42:49;6.20;99.90
16907;DHT22;8570;52.380;4.654;2023-04-06T00:47:51;6.20;99.90
16907;DHT22;8570;52.380;4.654;2023-04-06T00:52:55;6.20;99.90
16907;DHT22;8570;52.380;4.654;2023-04-06T00:57:58;6.20;99.90
16907;DHT22;8570;52.380;4.654;2023-04-06T01:03:00;6.20;99.90
16907;DHT22;8570;52.380;4.654;2023-04-06T01:08:04;6.20;99.90
16907;DHT22;8570;52.380;4.654;2023-04-06T01:13:05;6.20;99.90
16907;DHT22;8570;52.380;4.654;2023-04-06T01:18:09;6.20;99.90
16907;DHT22;8570;52.380;4.654;2023-04-06T01:23:12;6.20;99.90
16907;DHT22;8570;52.380;4.654;2023-04-06T01:28:14;6.20;99.90
16907;DHT22;8570;52.380;4.654;2023-04-06T01:33:16;6.20;99.90
16907;DHT22;8570;52.380;4.654;2023-04-06T01:38:20;6.20;99.90
16907;DHT22;8570;52.380;4.654;2023-04-06T01:43:22;6.10;99.90
16907;DHT22;8570;52.380;4.654;2023-04-06T01:48:25;6.10;99.90
16907;DHT22;8570;52.380;4.654;2023-04-06T01:53:29;6.10;99.90
16907;DHT22;8570;52.380;4.654;2023-04-06T01:58:31;6.10;99.90
16907;DHT22;8570;52.380;4.654;2023-04-06T02:03:32;6.10;99.90
16907;DHT22;8570;52.380;4.654;2023-04-06T02:08:36;6.10;99.90
16907;DHT22;8570;52.380;4.654;2023-04-06T02:13:38;6.00;99.90
16907;DHT22;8570;52.380;4.654;2023-04-06T02:18:40;6.00;99.90
16907;DHT22;8570;52.380;4.654;2023-04-06T02:23:43;6.00;99.90
16907;DHT22;8570;52.380;4.654;2023-04-06T02:28:45;6.00;99.90
16907;DHT22;8570;52.380;4.654;2023-04-06T02:33:47;5.90;99.90
16907;DHT22;8570;52.380;4.654;2023-04-06T02:38:51;5.90;99.90
16907;DHT22;8570;52.380;4.654;2023-04-06T02:43:53;5.90;99.90
16907;DHT22;8570;52.380;4.654;2023-04-06T02:48:55;5.90;99.90
16907;DHT22;8570;52.380;4.654;2023-04-06T02:53:58;5.90;99.90
16907;DHT22;8570;52.380;4.654;2023-04-06T02:59:00;5.90;99.90
16907;DHT22;8570;52.380;4.654;2023-04-06T03:04:02;5.90;99.90
16907;DHT22;8570;52.380;4.654;2023-04-06T03:09:06;5.90;99.90
16907;DHT22;8570;52.380;4.654;2023-04-06T03:14:08;5.90;99.90
16907;DHT22;8570;52.380;4.654;2023-04-06T03:19:10;5.90;99.90
16907;DHT22;8570;52.380;4.654;2023-04-06T03:24:13;5.90;99.90
16907;DHT22;8570;52.380;4.654;2023-04-06T03:29:15;5.90;99.90
16907;DHT22;8570;52.380;4.654;2023-04-06T03:34:17;5.90;99.90
16907;DHT22;8570;52.380;4.654;2023-04-06T03:39:20;5.90;99.90
16907;DHT22;8570;52.380;4.654;2023-04-06T03:44:22;6.00;99.90
16907;DHT22;8570;52.380;4.654;2023-04-06T03:49:24;6.00;99.90
16907;DHT22;8570;52.380;4.654;2023-04-06T03:54:28;6.00;99.90
16907;DHT22;8570;52.380;4.654;2023-04-06T03:59:30;6.00;99.90
16907;DHT22;8570;52.380;4.654;2023-04-06T04:04:32;6.00;99.90
16907;DHT22;8570;52.380;4.654;2023-04-06T04:09:36;6.00;99.90
16907;DHT22;8570;52.380;4.654;2023-04-06T04:14:38;6.00;99.90
16907;DHT22;8570;52.380;4.654;2023-04-06T04:19:40;6.00;99.90
16907;DHT22;8570;52.380;4.654;2023-04-06T04:24:43;6.00;99.90
16907;DHT22;8570;52.380;4.654;2023-04-06T04:29:45;6.00;99.90
16907;DHT22;8570;52.380;4.654;2023-04-06T04:34:47;6.00;99.90
16907;DHT22;8570;52.380;4.654;2023-04-06T04:39:51;6.00;99.90
16907;DHT22;8570;52.380;4.654;2023-04-06T04:44:52;6.00;99.90
16907;DHT22;8570;52.380;4.654;2023-04-06T04:49:54;6.00;99.90
16907;DHT22;8570;52.380;4.654;2023-04-06T04:54:58;6.00;99.90
16907;DHT22;8570;52.380;4.654;2023-04-06T05:00:00;6.00;99.90
16907;DHT22;8570;52.380;4.654;2023-04-06T05:05:02;6.00;99.90
16907;DHT22;8570;52.380;4.654;2023-04-06T05:10:07;6.00;99.90
16907;DHT22;8570;52.380;4.654;2023-04-06T05:15:09;6.00;99.90
16907;DHT22;8570;52.380;4.654;2023-04-06T05:20:12;6.00;99.90
16907;DHT22;8570;52.380;4.654;2023-04-06T05:25:15;6.00;99.90
16907;DHT22;8570;52.380;4.654;2023-04-06T05:30:17;6.00;99.90
16907;DHT22;8570;52.380;4.654;2023-04-06T05:35:19;6.00;99.90
16907;DHT22;8570;52.380;4.654;2023-04-06T05:40:22;6.10;99.90
16907;DHT22;8570;52.380;4.654;2023-04-06T05:45:25;6.10;99.90
16907;DHT22;8570;52.380;4.654;2023-04-06T05:50:27;6.10;99.90
16907;DHT22;8570;52.380;4.654;2023-04-06T05:55:30;6.10;99.90
16907;DHT22;8570;52.380;4.654;2023-04-06T06:00:32;6.20;99.90
16907;DHT22;8570;52.380;4.654;2023-04-06T06:05:35;6.20;99.90
16907;DHT22;8570;52.380;4.654;2023-04-06T06:10:39;6.20;99.90
16907;DHT22;8570;52.380;4.654;2023-04-06T06:15:43;6.30;99.90
16907;DHT22;8570;52.380;4.654;2023-04-06T06:20:45;6.30;99.90
16907;DHT22;8570;52.380;4.654;2023-04-06T06:25:48;6.40;99.90
16907;DHT22;8570;52.380;4.654;2023-04-06T06:30:50;6.40;99.90
16907;DHT22;8570;52.380;4.654;2023-04-06T06:35:52;6.50;99.90
16907;DHT22;8570;52.380;4.654;2023-04-06T06:40:55;6.60;99.90
16907;DHT22;8570;52.380;4.654;2023-04-06T06:45:57;6.60;99.90
16907;DHT22;8570;52.380;4.654;2023-04-06T06:51:00;6.70;99.90
16907;DHT22;8570;52.380;4.654;2023-04-06T06:56:03;6.70;99.90
16907;DHT22;8570;52.380;4.654;2023-04-06T07:01:05;6.80;99.90
16907;DHT22;8570;52.380;4.654;2023-04-06T07:06:07;6.90;99.90
16907;DHT22;8570;52.380;4.654;2023-04-06T07:11:10;6.90;99.90
16907;DHT22;8570;52.380;4.654;2023-04-06T07:16:12;7.00;99.90
16907;DHT22;8570;52.380;4.654;2023-04-06T07:21:14;7.10;99.90
16907;DHT22;8570;52.380;4.654;2023-04-06T07:26:17;7.20;99.90
16907;DHT22;8570;52.380;4.654;2023-04-06T07:31:20;7.30;99.90
16907;DHT22;8570;52.380;4.654;2023-04-06T07:36:22;7.40;99.90
16907;DHT22;8570;52.380;4.654;2023-04-06T07:41:25;7.50;99.90
16907;DHT22;8570;52.380;4.654;2023-04-06T07:46:27;7.60;99.90
16907;DHT22;8570;52.380;4.654;2023-04-06T07:51:29;7.70;99.90
16907;DHT22;8570;52.380;4.654;2023-04-06T07:56:32;7.80;99.90
16907;DHT22;8570;52.380;4.654;2023-04-06T08:01:35;7.90;99.90
16907;DHT22;8570;52.380;4.654;2023-04-06T08:06:36;8.00;99.90
16907;DHT22;8570;52.380;4.654;2023-04-06T08:11:40;8.10;99.90
16907;DHT22;8570;52.380;4.654;2023-04-06T08:16:42;8.20;99.90
16907;DHT22;8570;52.380;4.654;2023-04-06T08:21:44;8.20;99.90
16907;DHT22;8570;52.380;4.654;2023-04-06T08:26:47;8.30;99.90
16907;DHT22;8570;52.380;4.654;2023-04-06T08:31:49;8.40;99.90
16907;DHT22;8570;52.380;4.654;2023-04-06T08:36:51;8.50;99.90
16907;DHT22;8570;52.380;4.654;2023-04-06T08:41:55;8.60;99.90
16907;DHT22;8570;52.380;4.654;2023-04-06T08:47:00;8.70;99.90
16907;DHT22;8570;52.380;4.654;2023-04-06T08:52:04;8.80;99.90
16907;DHT22;8570;52.380;4.654;2023-04-06T08:57:08;8.80;99.90
16907;DHT22;8570;52.380;4.654;2023-04-06T09:02:15;8.80;99.90
16907;DHT22;8570;52.380;4.654;2023-04-06T09:07:17;8.80;99.90
16907;DHT22;8570;52.380;4.654;2023-04-06T09:12:25;8.80;99.90
16907;DHT22;8570;52.380;4.654;2023-04-06T09:17:28;8.80;99.90
16907;DHT22;8570;52.380;4.654;2023-04-06T09:22:36;8.80;99.90
16907;DHT22;8570;52.380;4.654;2023-04-06T09:27:39;8.90;99.90
16907;DHT22;8570;52.380;4.654;2023-04-06T09:32:49;8.80;99.90
16907;DHT22;8570;52.380;4.654;2023-04-06T09:37:51;8.90;99.90
16907;DHT22;8570;52.380;4.654;2023-04-06T09:42:55;9.00;99.90
16907;DHT22;8570;52.380;4.654;2023-04-06T09:47:59;9.00;99.90
16907;DHT22;8570;52.380;4.654;2023-04-06T09:53:03;9.00;99.90
16907;DHT22;8570;52.380;4.654;2023-04-06T09:58:08;9.10;99.90
16907;DHT22;8570;52.380;4.654;2023-04-06T10:03:25;9.10;99.90
16907;DHT22;8570;52.380;4.654;2023-04-06T10:08:32;9.10;99.90
16907;DHT22;8570;52.380;4.654;2023-04-06T10:13:36;9.10;99.90
16907;DHT22;8570;52.380;4.654;2023-04-06T10:18:41;9.10;99.90
16907;DHT22;8570;52.380;4.654;2023-04-06T10:23:48;9.10;99.90
16907;DHT22;8570;52.380;4.654;2023-04-06T10:28:53;9.10;99.90
16907;DHT22;8570;52.380;4.654;2023-04-06T10:33:56;9.10;99.90
16907;DHT22;8570;52.380;4.654;2023-04-06T10:38:59;9.10;99.90
16907;DHT22;8570;52.380;4.654;2023-04-06T10:44:04;9.10;99.90
16907;DHT22;8570;52.380;4.654;2023-04-06T10:49:12;9.10;99.90
16907;DHT22;8570;52.380;4.654;2023-04-06T10:54:15;9.20;99.90
16907;DHT22;8570;52.380;4.654;2023-04-06T10:59:22;9.20;99.90
16907;DHT22;8570;52.380;4.654;2023-04-06T11:04:25;9.20;99.90
16907;DHT22;8570;52.380;4.654;2023-04-06T11:09:29;9.20;99.90
16907;DHT22;8570;52.380;4.654;2023-04-06T11:14:33;9.20;99.90
16907;DHT22;8570;52.380;4.654;2023-04-06T11:19:35;9.10;99.90
16907;DHT22;8570;52.380;4.654;2023-04-06T11:24:37;9.10;99.90
16907;DHT22;8570;52.380;4.654;2023-04-06T11:29:40;9.20;99.90
16907;DHT22;8570;52.380;4.654;2023-04-06T11:34:42;9.20;99.90
16907;DHT22;8570;52.380;4.654;2023-04-06T11:39:48;9.30;99.90
16907;DHT22;8570;52.380;4.654;2023-04-06T11:44:54;9.30;99.90
16907;DHT22;8570;52.380;4.654;2023-04-06T11:50:04;9.20;99.90
16907;DHT22;8570;52.380;4.654;2023-04-06T11:55:14;9.20;99.90
16907;DHT22;8570;52.380;4.654;2023-04-06T12:00:22;9.10;99.90
16907;DHT22;8570;52.380;4.654;2023-04-06T12:05:24;9.20;99.90
16907;DHT22;8570;52.380;4.654;2023-04-06T12:10:26;9.20;99.90
16907;DHT22;8570;52.380;4.654;2023-04-06T12:15:29;9.20;99.90
16907;DHT22;8570;52.380;4.654;2023-04-06T12:20:31;9.10;99.90
16907;DHT22;8570;52.380;4.654;2023-04-06T12:25:33;9.10;99.90
16907;DHT22;8570;52.380;4.654;2023-04-06T12:30:37;9.10;99.90
16907;DHT22;8570;52.380;4.654;2023-04-06T12:35:41;9.10;99.90
16907;DHT22;8570;52.380;4.654;2023-04-06T12:40:43;9.10;99.90
16907;DHT22;8570;52.380;4.654;2023-04-06T12:45:46;9.10;99.90
16907;DHT22;8570;52.380;4.654;2023-04-06T12:50:54;9.00;99.90
16907;DHT22;8570;52.380;4.654;2023-04-06T12:55:57;9.00;99.90
16907;DHT22;8570;52.380;4.654;2023-04-06T13:01:00;8.90;99.90
16907;DHT22;8570;52.380;4.654;2023-04-06T13:06:03;8.80;99.90
16907;DHT22;8570;52.380;4.654;2023-04-06T13:11:05;8.90;99.90
16907;DHT22;8570;52.380;4.654;2023-04-06T13:16:10;8.90;99.90
16907;DHT22;8570;52.380;4.654;2023-04-06T13:21:13;8.90;99.90
16907;DHT22;8570;52.380;4.654;2023-04-06T13:26:16;8.90;99.90
16907;DHT22;8570;52.380;4.654;2023-04-06T13:31:19;8.90;99.90
16907;DHT22;8570;52.380;4.654;2023-04-06T13:36:21;8.90;99.90
16907;DHT22;8570;52.380;4.654;2023-04-06T13:41:24;8.90;99.90
16907;DHT22;8570;52.380;4.654;2023-04-06T13:46:28;8.90;99.90
16907;DHT22;8570;52.380;4.654;2023-04-06T13:51:30;8.90;99.90
16907;DHT22;8570;52.380;4.654;2023-04-06T13:56:32;8.80;99.90
16907;DHT22;8570;52.380;4.654;2023-04-06T14:01:35;8.80;99.90
16907;DHT22;8570;52.380;4.654;2023-04-06T14:06:38;8.80;99.90
16907;DHT22;8570;52.380;4.654;2023-04-06T14:11:40;8.80;99.90
16907;DHT22;8570;52.380;4.654;2023-04-06T14:16:43;8.80;99.90
16907;DHT22;8570;52.380;4.654;2023-04-06T14:21:45;8.70;99.90
16907;DHT22;8570;52.380;4.654;2023-04-06T14:26:47;8.70;99.90
16907;DHT22;8570;52.380;4.654;2023-04-06T14:31:52;8.70;99.90
16907;DHT22;8570;52.380;4.654;2023-04-06T14:37:00;8.70;99.90
16907;DHT22;8570;52.380;4.654;2023-04-06T14:42:01;8.70;99.90
16907;DHT22;8570;52.380;4.654;2023-04-06T14:47:05;8.70;99.90
16907;DHT22;8570;52.380;4.654;2023-04-06T14:52:06;8.70;99.90
16907;DHT22;8570;52.380;4.654;2023-04-06T14:57:09;8.70;99.90
16907;DHT22;8570;52.380;4.654;2023-04-06T15:02:12;8.70;99.90
16907;DHT22;8570;52.380;4.654;2023-04-06T15:07:14;8.80;99.90
16907;DHT22;8570;52.380;4.654;2023-04-06T15:12:17;8.80;99.90
16907;DHT22;8570;52.380;4.654;2023-04-06T15:17:20;8.80;99.90
16907;DHT22;8570;52.380;4.654;2023-04-06T15:22:22;8.80;99.90
16907;DHT22;8570;52.380;4.654;2023-04-06T15:27:24;8.80;99.90
16907;DHT22;8570;52.380;4.654;2023-04-06T15:32:27;8.80;99.90
16907;DHT22;8570;52.380;4.654;2023-04-06T15:37:29;8.80;99.90
16907;DHT22;8570;52.380;4.654;2023-04-06T15:42:31;8.80;99.90
16907;DHT22;8570;52.380;4.654;2023-04-06T15:47:34;8.80;99.90
16907;DHT22;8570;52.380;4.654;2023-04-06T15:52:37;8.80;99.90
16907;DHT22;8570;52.380;4.654;2023-04-06T15:57:41;8.80;99.90
16907;DHT22;8570;52.380;4.654;2023-04-06T16:02:44;8.80;99.90
16907;DHT22;8570;52.380;4.654;2023-04-06T16:07:46;8.80;99.90
16907;DHT22;8570;52.380;4.654;2023-04-06T16:12:48;8.80;99.90
16907;DHT22;8570;52.380;4.654;2023-04-06T16:17:51;8.80;99.90
16907;DHT22;8570;52.380;4.654;2023-04-06T16:22:53;8.80;99.90
16907;DHT22;8570;52.380;4.654;2023-04-06T16:27:55;8.90;99.90
16907;DHT22;8570;52.380;4.654;2023-04-06T16:32:58;8.90;99.90
16907;DHT22;8570;52.380;4.654;2023-04-06T16:38:00;9.00;99.90
16907;DHT22;8570;52.380;4.654;2023-04-06T16:43:02;9.00;99.90
16907;DHT22;8570;52.380;4.654;2023-04-06T16:48:06;9.00;99.90
16907;DHT22;8570;52.380;4.654;2023-04-06T16:53:08;9.10;99.90
16907;DHT22;8570;52.380;4.654;2023-04-06T16:58:10;9.10;99.90
16907;DHT22;8570;52.380;4.654;2023-04-06T17:03:13;9.10;99.90
16907;DHT22;8570;52.380;4.654;2023-04-06T17:08:15;9.10;99.90
16907;DHT22;8570;52.380;4.654;2023-04-06T17:13:17;9.00;99.90
16907;DHT22;8570;52.380;4.654;2023-04-06T17:18:20;9.00;99.90
16907;DHT22;8570;52.380;4.654;2023-04-06T17:23:22;9.00;99.90
16907;DHT22;8570;52.380;4.654;2023-04-06T17:28:24;9.00;99.90
16907;DHT22;8570;52.380;4.654;2023-04-06T17:33:28;9.00;99.90
16907;DHT22;8570;52.380;4.654;2023-04-06T17:38:32;8.90;99.90
16907;DHT22;8570;52.380;4.654;2023-04-06T17:43:33;8.90;99.90
16907;DHT22;8570;52.380;4.654;2023-04-06T17:48:37;9.00;99.90
16907;DHT22;8570;52.380;4.654;2023-04-06T17:53:38;9.00;99.90
16907;DHT22;8570;52.380;4.654;2023-04-06T17:58:40;9.00;99.90
16907;DHT22;8570;52.380;4.654;2023-04-06T18:03:44;9.00;99.90
16907;DHT22;8570;52.380;4.654;2023-04-06T18:08:46;9.00;99.90
16907;DHT22;8570;52.380;4.654;2023-04-06T18:13:47;9.00;99.90
16907;DHT22;8570;52.380;4.654;2023-04-06T18:18:51;9.00;99.90
16907;DHT22;8570;52.380;4.654;2023-04-06T18:23:53;9.10;99.90
16907;DHT22;8570;52.380;4.654;2023-04-06T18:28:55;9.10;99.90
16907;DHT22;8570;52.380;4.654;2023-04-06T18:33:58;9.10;99.90
16907;DHT22;8570;52.380;4.654;2023-04-06T18:39:01;9.10;99.90
16907;DHT22;8570;52.380;4.654;2023-04-06T18:44:03;9.20;99.90
16907;DHT22;8570;52.380;4.654;2023-04-06T18:49:06;9.20;99.90
16907;DHT22;8570;52.380;4.654;2023-04-06T18:59:10;9.30;99.90
16907;DHT22;8570;52.380;4.654;2023-04-06T19:04:14;9.40;99.90
16907;DHT22;8570;52.380;4.654;2023-04-06T19:09:16;9.40;99.90
16907;DHT22;8570;52.380;4.654;2023-04-06T19:14:18;9.50;99.90
16907;DHT22;8570;52.380;4.654;2023-04-06T19:19:21;9.50;99.90
16907;DHT22;8570;52.380;4.654;2023-04-06T19:24:23;9.50;99.90
16907;DHT22;8570;52.380;4.654;2023-04-06T19:29:25;9.50;99.90
16907;DHT22;8570;52.380;4.654;2023-04-06T19:34:28;9.50;99.90
16907;DHT22;8570;52.380;4.654;2023-04-06T19:39:30;9.50;99.90
16907;DHT22;8570;52.380;4.654;2023-04-06T19:44:32;9.50;99.90
16907;DHT22;8570;52.380;4.654;2023-04-06T19:49:36;9.50;99.90
16907;DHT22;8570;52.380;4.654;2023-04-06T19:54:40;9.50;99.90
16907;DHT22;8570;52.380;4.654;2023-04-06T19:59:42;9.50;99.90
16907;DHT22;8570;52.380;4.654;2023-04-06T20:04:45;9.40;99.90
16907;DHT22;8570;52.380;4.654;2023-04-06T20:09:47;9.40;99.90
16907;DHT22;8570;52.380;4.654;2023-04-06T20:14:49;9.40;99.90
16907;DHT22;8570;52.380;4.654;2023-04-06T20:19:53;9.40;99.90
16907;DHT22;8570;52.380;4.654;2023-04-06T20:24:58;9.40;99.90
16907;DHT22;8570;52.380;4.654;2023-04-06T20:30:00;9.40;99.90
16907;DHT22;8570;52.380;4.654;2023-04-06T20:35:03;9.40;99.90
16907;DHT22;8570;52.380;4.654;2023-04-06T20:40:06;9.40;99.90
16907;DHT22;8570;52.380;4.654;2023-04-06T20:45:09;9.40;99.90
16907;DHT22;8570;52.380;4.654;2023-04-06T20:50:15;9.30;99.90
16907;DHT22;8570;52.380;4.654;2023-04-06T20:55:17;9.30;99.90
16907;DHT22;8570;52.380;4.654;2023-04-06T21:00:19;9.30;99.90
16907;DHT22;8570;52.380;4.654;2023-04-06T21:05:23;9.30;99.90
16907;DHT22;8570;52.380;4.654;2023-04-06T21:10:25;9.20;99.90
16907;DHT22;8570;52.380;4.654;2023-04-06T21:15:27;9.20;99.90
16907;DHT22;8570;52.380;4.654;2023-04-06T21:20:32;9.20;99.90
16907;DHT22;8570;52.380;4.654;2023-04-06T21:25:35;9.10;99.90
16907;DHT22;8570;52.380;4.654;2023-04-06T21:30:37;9.10;99.90
16907;DHT22;8570;52.380;4.654;2023-04-06T21:35:43;9.10;99.90
16907;DHT22;8570;52.380;4.654;2023-04-06T21:40:53;9.10;99.90
16907;DHT22;8570;52.380;4.654;2023-04-06T21:45:55;9.00;99.90
16907;DHT22;8570;52.380;4.654;2023-04-06T21:50:58;9.00;99.90
16907;DHT22;8570;52.380;4.654;2023-04-06T21:56:00;9.00;99.90
16907;DHT22;8570;52.380;4.654;2023-04-06T22:01:06;9.00;99.90
16907;DHT22;8570;52.380;4.654;2023-04-06T22:06:13;8.90;99.90
16907;DHT22;8570;52.380;4.654;2023-04-06T22:11:15;8.90;99.90
16907;DHT22;8570;52.380;4.654;2023-04-06T22:16:17;8.90;99.90
16907;DHT22;8570;52.380;4.654;2023-04-06T22:21:21;8.90;99.90
16907;DHT22;8570;52.380;4.654;2023-04-06T22:26:25;8.90;99.90
16907;DHT22;8570;52.380;4.654;2023-04-06T22:31:27;8.90;99.90
16907;DHT22;8570;52.380;4.654;2023-04-06T22:36:31;8.80;99.90
16907;DHT22;8570;52.380;4.654;2023-04-06T22:41:32;8.80;99.90
16907;DHT22;8570;52.380;4.654;2023-04-06T22:46:34;8.80;99.90
16907;DHT22;8570;52.380;4.654;2023-04-06T22:51:38;8.80;99.90
16907;DHT22;8570;52.380;4.654;2023-04-06T22:56:41;8.80;99.90
16907;DHT22;8570;52.380;4.654;2023-04-06T23:01:43;8.80;99.90
16907;DHT22;8570;52.380;4.654;2023-04-06T23:06:46;8.80;99.90
16907;DHT22;8570;52.380;4.654;2023-04-06T23:11:48;8.80;99.90
16907;DHT22;8570;52.380;4.654;2023-04-06T23:16:50;8.80;99.90
16907;DHT22;8570;52.380;4.654;2023-04-06T23:21:53;8.80;99.90
16907;DHT22;8570;52.380;4.654;2023-04-06T23:26:56;8.80;99.90
16907;DHT22;8570;52.380;4.654;2023-04-06T23:31:58;8.80;99.90
16907;DHT22;8570;52.380;4.654;2023-04-06T23:37:02;8.80;99.90
16907;DHT22;8570;52.380;4.654;2023-04-06T23:42:04;8.80;99.90
16907;DHT22;8570;52.380;4.654;2023-04-06T23:47:05;8.80;99.90
16907;DHT22;8570;52.380;4.654;2023-04-06T23:52:09;8.80;99.90
16907;DHT22;8570;52.380;4.654;2023-04-06T23:57:11;8.80;99.90
